sensor_id;sensor_type;location;lat;lon;timestamp;temperature;humidity
11497;DHT22;5805;51.542;7.230;2023-05-10T00:01:39;16.90;99.90
11497;DHT22;5805;51.542;7.230;2023-05-10T00:04:05;16.90;99.90
11497;DHT22;5805;51.542;7.230;2023-05-10T00:06:30;16.80;99.90
11497;DHT22;5805;51.542;7.230;2023-05-10T00:08:58;16.80;99.90
11497;DHT22;5805;51.542;7.230;2023-05-10T00:11:23;16.80;99.90
11497;DHT22;5805;51.542;7.230;2023-05-10T00:13:49;16.80;99.90
11497;DHT22;5805;51.542;7.230;2023-05-10T00:16:15;16.80;99.90
11497;DHT22;5805;51.542;7.230;2023-05-10T00:18:40;16.70;99.90
11497;DHT22;5805;51.542;7.230;2023-05-10T00:21:06;16.60;99.90
11497;DHT22;5805;51.542;7.230;2023-05-10T00:23:32;16.50;99.90
11497;DHT22;5805;51.542;7.230;2023-05-10T00:25:59;16.50;99.90
11497;DHT22;5805;51.542;7.230;2023-05-10T00:28:24;16.50;99.90
11497;DHT22;5805;51.542;7.230;2023-05-10T00:30:52;16.50;99.90
11497;DHT22;5805;51.542;7.230;2023-05-10T00:33:18;16.50;99.90
11497;DHT22;5805;51.542;7.230;2023-05-10T00:35:43;16.50;99.90
11497;DHT22;5805;51.542;7.230;2023-05-10T00:38:09;16.60;99.90
11497;DHT22;5805;51.542;7.230;2023-05-10T00:40:35;16.60;99.90
11497;DHT22;5805;51.542;7.230;2023-05-10T00:43:02;16.60;99.90
11497;DHT22;5805;51.542;7.230;2023-05-10T00:45:29;16.60;99.90
11497;DHT22;5805;51.542;7.230;2023-05-10T00:47:55;16.60;99.90
11497;DHT22;5805;51.542;7.230;2023-05-10T00:50:21;16.50;99.90
11497;DHT22;5805;51.542;7.230;2023-05-10T00:52:46;16.50;99.90
11497;DHT22;5805;51.542;7.230;2023-05-10T00:55:13;16.60;99.90
11497;DHT22;5805;51.542;7.230;2023-05-10T00:57:39;16.70;99.90
11497;DHT22;5805;51.542;7.230;2023-05-10T01:00:08;16.70;99.90
11497;DHT22;5805;51.542;7.230;2023-05-10T01:02:34;16.70;99.90
11497;DHT22;5805;51.542;7.230;2023-05-10T01:05:00;16.70;99.90
11497;DHT22;5805;51.542;7.230;2023-05-10T01:07:26;16.80;99.90
11497;DHT22;5805;51.542;7.230;2023-05-10T01:12:55;16.70;99.90
11497;DHT22;5805;51.542;7.230;2023-05-10T01:15:23;16.70;99.90
11497;DHT22;5805;51.542;7.230;2023-05-10T01:17:49;16.70;99.90
11497;DHT22;5805;51.542;7.230;2023-05-10T01:20:15;16.60;99.90
11497;DHT22;5805;51.542;7.230;2023-05-10T01:23:14;16.60;99.90
11497;DHT22;5805;51.542;7.230;2023-05-10T01:26:17;16.60;99.90
11497;DHT22;5805;51.542;7.230;2023-05-10T01:29:24;16.60;99.90
11497;DHT22;5805;51.542;7.230;2023-05-10T01:32:21;16.60;99.90
11497;DHT22;5805;51.542;7.230;2023-05-10T01:34:56;16.50;99.90
11497;DHT22;5805;51.542;7.230;2023-05-10T01:37:33;16.50;99.90
11497;DHT22;5805;51.542;7.230;2023-05-10T01:40:10;16.50;99.90
11497;DHT22;5805;51.542;7.230;2023-05-10T01:42:46;16.40;99.90
11497;DHT22;5805;51.542;7.230;2023-05-10T01:45:20;16.40;99.90
11497;DHT22;5805;51.542;7.230;2023-05-10T01:47:58;16.40;99.90
11497;DHT22;5805;51.542;7.230;2023-05-10T01:50:27;16.40;99.90
11497;DHT22;5805;51.542;7.230;2023-05-10T01:52:56;16.40;99.90
11497;DHT22;5805;51.542;7.230;2023-05-10T01:55:25;16.50;99.90
11497;DHT22;5805;51.542;7.230;2023-05-10T01:57:55;16.50;99.90
11497;DHT22;5805;51.542;7.230;2023-05-10T02:00:22;16.50;99.90
11497;DHT22;5805;51.542;7.230;2023-05-10T02:02:49;16.50;99.90
11497;DHT22;5805;51.542;7.230;2023-05-10T02:05:18;16.40;99.90
11497;DHT22;5805;51.542;7.230;2023-05-10T02:07:45;16.40;99.90
11497;DHT22;5805;51.542;7.230;2023-05-10T02:10:14;16.40;99.90
11497;DHT22;5805;51.542;7.230;2023-05-10T02:12:42;16.40;99.90
11497;DHT22;5805;51.542;7.230;2023-05-10T02:15:10;16.40;99.90
11497;DHT22;5805;51.542;7.230;2023-05-10T02:17:37;16.40;99.90
11497;DHT22;5805;51.542;7.230;2023-05-10T02:20:04;16.40;99.90
11497;DHT22;5805;51.542;7.230;2023-05-10T02:22:32;16.30;99.90
11497;DHT22;5805;51.542;7.230;2023-05-10T02:24:59;16.20;99.90
11497;DHT22;5805;51.542;7.230;2023-05-10T02:27:29;16.30;99.90
11497;DHT22;5805;51.542;7.230;2023-05-10T02:29:56;16.30;99.90
11497;DHT22;5805;51.542;7.230;2023-05-10T02:32:24;16.30;99.90
11497;DHT22;5805;51.542;7.230;2023-05-10T02:34:52;16.30;99.90
11497;DHT22;5805;51.542;7.230;2023-05-10T02:37:19;16.30;99.90
11497;DHT22;5805;51.542;7.230;2023-05-10T02:39:48;16.30;99.90
11497;DHT22;5805;51.542;7.230;2023-05-10T02:42:17;16.30;99.90
11497;DHT22;5805;51.542;7.230;2023-05-10T02:44:45;16.30;99.90
11497;DHT22;5805;51.542;7.230;2023-05-10T02:47:13;16.30;99.90
11497;DHT22;5805;51.542;7.230;2023-05-10T02:49:38;16.30;99.90
11497;DHT22;5805;51.542;7.230;2023-05-10T02:52:05;16.30;99.90
11497;DHT22;5805;51.542;7.230;2023-05-10T02:54:33;16.30;99.90
11497;DHT22;5805;51.542;7.230;2023-05-10T02:57:04;16.30;99.90
11497;DHT22;5805;51.542;7.230;2023-05-10T02:59:31;16.30;99.90
11497;DHT22;5805;51.542;7.230;2023-05-10T03:01:56;16.30;99.90
11497;DHT22;5805;51.542;7.230;2023-05-10T03:04:22;16.30;99.90
11497;DHT22;5805;51.542;7.230;2023-05-10T03:06:48;16.30;99.90
11497;DHT22;5805;51.542;7.230;2023-05-10T03:09:14;16.20;99.90
11497;DHT22;5805;51.542;7.230;2023-05-10T03:11:47;16.20;99.90
11497;DHT22;5805;51.542;7.230;2023-05-10T03:14:25;16.30;99.90
11497;DHT22;5805;51.542;7.230;2023-05-10T03:17:01;16.20;99.90
11497;DHT22;5805;51.542;7.230;2023-05-10T03:19:32;16.20;99.90
11497;DHT22;5805;51.542;7.230;2023-05-10T03:22:04;16.20;99.90
11497;DHT22;5805;51.542;7.230;2023-05-10T03:24:34;16.20;99.90
11497;DHT22;5805;51.542;7.230;2023-05-10T03:27:01;16.30;99.90
11497;DHT22;5805;51.542;7.230;2023-05-10T03:29:29;16.30;99.90
11497;DHT22;5805;51.542;7.230;2023-05-10T03:31:57;16.30;99.90
11497;DHT22;5805;51.542;7.230;2023-05-10T03:34:23;16.20;99.90
11497;DHT22;5805;51.542;7.230;2023-05-10T03:36:49;16.30;99.90
11497;DHT22;5805;51.542;7.230;2023-05-10T03:39:15;16.20;99.90
11497;DHT22;5805;51.542;7.230;2023-05-10T03:41:40;16.30;99.90
11497;DHT22;5805;51.542;7.230;2023-05-10T03:44:06;16.30;99.90
11497;DHT22;5805;51.542;7.230;2023-05-10T03:46:33;16.30;99.90
11497;DHT22;5805;51.542;7.230;2023-05-10T03:48:59;16.20;99.90
11497;DHT22;5805;51.542;7.230;2023-05-10T03:51:25;16.30;99.90
11497;DHT22;5805;51.542;7.230;2023-05-10T03:53:50;16.30;99.90
11497;DHT22;5805;51.542;7.230;2023-05-10T03:56:17;16.30;99.90
11497;DHT22;5805;51.542;7.230;2023-05-10T03:58:45;16.30;99.90
11497;DHT22;5805;51.542;7.230;2023-05-10T04:01:11;16.30;99.90
11497;DHT22;5805;51.542;7.230;2023-05-10T04:03:38;16.40;99.90
11497;DHT22;5805;51.542;7.230;2023-05-10T04:06:04;16.30;99.90
11497;DHT22;5805;51.542;7.230;2023-05-10T04:08:30;16.30;99.90
11497;DHT22;5805;51.542;7.230;2023-05-10T04:11:05;16.30;99.90
11497;DHT22;5805;51.542;7.230;2023-05-10T04:13:30;16.30;99.90
11497;DHT22;5805;51.542;7.230;2023-05-10T04:15:56;16.30;99.90
11497;DHT22;5805;51.542;7.230;2023-05-10T04:18:25;16.30;99.90
11497;DHT22;5805;51.542;7.230;2023-05-10T04:20:52;16.20;99.90
11497;DHT22;5805;51.542;7.230;2023-05-10T04:23:18;16.20;99.90
11497;DHT22;5805;51.542;7.230;2023-05-10T04:25:43;16.30;99.90
11497;DHT22;5805;51.542;7.230;2023-05-10T04:28:10;16.30;99.90
11497;DHT22;5805;51.542;7.230;2023-05-10T04:30:35;16.30;99.90
11497;DHT22;5805;51.542;7.230;2023-05-10T04:33:06;16.30;99.90
11497;DHT22;5805;51.542;7.230;2023-05-10T04:35:34;16.30;99.90
11497;DHT22;5805;51.542;7.230;2023-05-10T04:38:01;16.30;99.90
11497;DHT22;5805;51.542;7.230;2023-05-10T04:40:27;16.30;99.90
11497;DHT22;5805;51.542;7.230;2023-05-10T04:42:52;16.30;99.90
11497;DHT22;5805;51.542;7.230;2023-05-10T04:45:19;16.30;99.90
11497;DHT22;5805;51.542;7.230;2023-05-10T04:47:44;16.30;99.90
11497;DHT22;5805;51.542;7.230;2023-05-10T04:50:10;16.20;99.90
11497;DHT22;5805;51.542;7.230;2023-05-10T04:52:39;16.20;99.90
11497;DHT22;5805;51.542;7.230;2023-05-10T04:55:07;16.20;99.90
11497;DHT22;5805;51.542;7.230;2023-05-10T04:57:34;16.30;99.90
11497;DHT22;5805;51.542;7.230;2023-05-10T05:00:00;16.30;99.90
11497;DHT22;5805;51.542;7.230;2023-05-10T05:02:26;16.40;99.90
11497;DHT22;5805;51.542;7.230;2023-05-10T05:04:51;16.40;99.90
11497;DHT22;5805;51.542;7.230;2023-05-10T05:07:17;16.50;99.90
11497;DHT22;5805;51.542;7.230;2023-05-10T05:09:43;16.50;99.90
11497;DHT22;5805;51.542;7.230;2023-05-10T05:12:10;16.50;99.90
11497;DHT22;5805;51.542;7.230;2023-05-10T05:14:36;16.50;99.90
11497;DHT22;5805;51.542;7.230;2023-05-10T05:17:02;16.40;99.90
11497;DHT22;5805;51.542;7.230;2023-05-10T05:19:28;16.40;99.90
11497;DHT22;5805;51.542;7.230;2023-05-10T05:21:56;16.40;99.90
11497;DHT22;5805;51.542;7.230;2023-05-10T05:24:21;16.40;99.90
11497;DHT22;5805;51.542;7.230;2023-05-10T05:26:47;16.40;99.90
11497;DHT22;5805;51.542;7.230;2023-05-10T05:29:15;16.40;99.90
11497;DHT22;5805;51.542;7.230;2023-05-10T05:31:41;16.40;99.90
11497;DHT22;5805;51.542;7.230;2023-05-10T05:34:10;16.40;99.90
11497;DHT22;5805;51.542;7.230;2023-05-10T05:36:39;16.50;99.90
11497;DHT22;5805;51.542;7.230;2023-05-10T05:39:05;16.50;99.90
11497;DHT22;5805;51.542;7.230;2023-05-10T05:41:30;16.60;99.90
11497;DHT22;5805;51.542;7.230;2023-05-10T05:43:56;16.60;99.90
11497;DHT22;5805;51.542;7.230;2023-05-10T05:46:24;16.50;99.90
11497;DHT22;5805;51.542;7.230;2023-05-10T05:48:49;16.60;99.90
11497;DHT22;5805;51.542;7.230;2023-05-10T05:51:15;16.60;99.90
11497;DHT22;5805;51.542;7.230;2023-05-10T05:53:41;16.60;99.90
11497;DHT22;5805;51.542;7.230;2023-05-10T05:56:06;16.70;99.90
11497;DHT22;5805;51.542;7.230;2023-05-10T05:58:32;16.60;99.90
11497;DHT22;5805;51.542;7.230;2023-05-10T06:00:58;16.60;99.90
11497;DHT22;5805;51.542;7.230;2023-05-10T06:03:25;16.60;99.90
11497;DHT22;5805;51.542;7.230;2023-05-10T06:05:54;16.50;99.90
11497;DHT22;5805;51.542;7.230;2023-05-10T06:08:21;16.50;99.90
11497;DHT22;5805;51.542;7.230;2023-05-10T06:10:47;16.50;99.90
11497;DHT22;5805;51.542;7.230;2023-05-10T06:13:13;16.50;99.90
11497;DHT22;5805;51.542;7.230;2023-05-10T06:15:39;16.40;99.90
11497;DHT22;5805;51.542;7.230;2023-05-10T06:18:05;16.40;99.90
11497;DHT22;5805;51.542;7.230;2023-05-10T06:20:36;16.40;99.90
11497;DHT22;5805;51.542;7.230;2023-05-10T06:23:05;16.40;99.90
11497;DHT22;5805;51.542;7.230;2023-05-10T06:25:31;16.40;99.90
11497;DHT22;5805;51.542;7.230;2023-05-10T06:28:01;16.50;99.90
11497;DHT22;5805;51.542;7.230;2023-05-10T06:30:27;16.60;99.90
11497;DHT22;5805;51.542;7.230;2023-05-10T06:32:53;16.60;99.90
11497;DHT22;5805;51.542;7.230;2023-05-10T06:35:19;16.60;99.90
11497;DHT22;5805;51.542;7.230;2023-05-10T06:37:46;16.60;99.90
11497;DHT22;5805;51.542;7.230;2023-05-10T06:40:12;16.70;99.90
11497;DHT22;5805;51.542;7.230;2023-05-10T06:42:38;16.70;99.90
11497;DHT22;5805;51.542;7.230;2023-05-10T06:45:04;16.90;99.90
11497;DHT22;5805;51.542;7.230;2023-05-10T06:47:30;17.10;99.90
11497;DHT22;5805;51.542;7.230;2023-05-10T06:49:58;17.20;99.90
11497;DHT22;5805;51.542;7.230;2023-05-10T06:52:24;17.30;99.90
11497;DHT22;5805;51.542;7.230;2023-05-10T06:54:52;17.40;99.90
11497;DHT22;5805;51.542;7.230;2023-05-10T06:57:18;17.40;99.90
11497;DHT22;5805;51.542;7.230;2023-05-10T06:59:43;17.40;99.90
11497;DHT22;5805;51.542;7.230;2023-05-10T07:02:09;17.50;99.90
11497;DHT22;5805;51.542;7.230;2023-05-10T07:04:35;17.60;99.90
11497;DHT22;5805;51.542;7.230;2023-05-10T07:07:00;17.60;99.90
11497;DHT22;5805;51.542;7.230;2023-05-10T07:09:26;17.60;99.90
11497;DHT22;5805;51.542;7.230;2023-05-10T07:11:53;17.60;99.90
11497;DHT22;5805;51.542;7.230;2023-05-10T07:14:19;17.60;99.90
11497;DHT22;5805;51.542;7.230;2023-05-10T07:16:45;17.60;99.90
11497;DHT22;5805;51.542;7.230;2023-05-10T07:19:10;17.60;99.90
11497;DHT22;5805;51.542;7.230;2023-05-10T07:21:36;17.60;99.90
11497;DHT22;5805;51.542;7.230;2023-05-10T07:24:02;17.60;99.90
11497;DHT22;5805;51.542;7.230;2023-05-10T07:26:28;17.80;99.90
11497;DHT22;5805;51.542;7.230;2023-05-10T07:28:55;18.00;99.90
11497;DHT22;5805;51.542;7.230;2023-05-10T07:31:20;18.30;99.90
11497;DHT22;5805;51.542;7.230;2023-05-10T07:33:46;18.70;99.90
11497;DHT22;5805;51.542;7.230;2023-05-10T07:36:12;18.70;99.90
11497;DHT22;5805;51.542;7.230;2023-05-10T07:38:37;19.00;99.90
11497;DHT22;5805;51.542;7.230;2023-05-10T07:41:03;19.30;99.90
11497;DHT22;5805;51.542;7.230;2023-05-10T07:43:29;19.30;99.90
11497;DHT22;5805;51.542;7.230;2023-05-10T07:45:56;19.20;99.90
11497;DHT22;5805;51.542;7.230;2023-05-10T07:48:21;19.20;99.90
11497;DHT22;5805;51.542;7.230;2023-05-10T07:50:47;19.20;99.90
11497;DHT22;5805;51.542;7.230;2023-05-10T07:53:13;19.20;99.90
11497;DHT22;5805;51.542;7.230;2023-05-10T07:55:38;19.40;99.90
11497;DHT22;5805;51.542;7.230;2023-05-10T07:58:04;19.60;99.90
11497;DHT22;5805;51.542;7.230;2023-05-10T08:00:31;19.90;99.90
11497;DHT22;5805;51.542;7.230;2023-05-10T08:02:58;20.30;99.90
11497;DHT22;5805;51.542;7.230;2023-05-10T08:05:24;20.60;99.90
11497;DHT22;5805;51.542;7.230;2023-05-10T08:07:50;20.50;99.90
11497;DHT22;5805;51.542;7.230;2023-05-10T08:10:16;20.70;99.90
11497;DHT22;5805;51.542;7.230;2023-05-10T08:12:42;20.70;99.90
11497;DHT22;5805;51.542;7.230;2023-05-10T08:15:08;20.60;99.90
11497;DHT22;5805;51.542;7.230;2023-05-10T08:17:34;20.40;99.90
11497;DHT22;5805;51.542;7.230;2023-05-10T08:20:01;20.10;99.90
11497;DHT22;5805;51.542;7.230;2023-05-10T08:22:27;20.00;99.90
11497;DHT22;5805;51.542;7.230;2023-05-10T08:24:53;19.90;99.90
11497;DHT22;5805;51.542;7.230;2023-05-10T08:27:19;19.90;99.90
11497;DHT22;5805;51.542;7.230;2023-05-10T08:29:44;20.10;99.90
11497;DHT22;5805;51.542;7.230;2023-05-10T08:32:10;20.10;99.90
11497;DHT22;5805;51.542;7.230;2023-05-10T08:34:36;20.10;99.90
11497;DHT22;5805;51.542;7.230;2023-05-10T08:37:03;20.00;99.90
11497;DHT22;5805;51.542;7.230;2023-05-10T08:39:29;20.00;99.90
11497;DHT22;5805;51.542;7.230;2023-05-10T08:41:58;20.00;99.90
11497;DHT22;5805;51.542;7.230;2023-05-10T08:44:26;19.90;99.90
11497;DHT22;5805;51.542;7.230;2023-05-10T08:46:53;19.80;99.90
11497;DHT22;5805;51.542;7.230;2023-05-10T08:49:20;19.60;99.90
11497;DHT22;5805;51.542;7.230;2023-05-10T08:51:50;19.30;99.90
11497;DHT22;5805;51.542;7.230;2023-05-10T08:54:18;19.20;99.90
11497;DHT22;5805;51.542;7.230;2023-05-10T08:56:44;19.20;99.90
11497;DHT22;5805;51.542;7.230;2023-05-10T08:59:10;19.10;99.90
11497;DHT22;5805;51.542;7.230;2023-05-10T09:01:36;19.20;99.90
11497;DHT22;5805;51.542;7.230;2023-05-10T09:04:03;19.30;99.90
11497;DHT22;5805;51.542;7.230;2023-05-10T09:06:29;19.50;99.90
11497;DHT22;5805;51.542;7.230;2023-05-10T09:08:55;19.70;99.90
11497;DHT22;5805;51.542;7.230;2023-05-10T09:11:22;19.90;99.90
11497;DHT22;5805;51.542;7.230;2023-05-10T09:13:50;19.80;99.90
11497;DHT22;5805;51.542;7.230;2023-05-10T09:16:17;19.70;99.90
11497;DHT22;5805;51.542;7.230;2023-05-10T09:18:43;19.60;99.90
11497;DHT22;5805;51.542;7.230;2023-05-10T09:21:10;19.40;99.90
11497;DHT22;5805;51.542;7.230;2023-05-10T09:23:36;19.40;99.90
11497;DHT22;5805;51.542;7.230;2023-05-10T09:26:02;19.40;99.90
11497;DHT22;5805;51.542;7.230;2023-05-10T09:28:31;19.50;99.90
11497;DHT22;5805;51.542;7.230;2023-05-10T09:30:57;19.50;99.90
11497;DHT22;5805;51.542;7.230;2023-05-10T09:33:23;19.70;99.90
11497;DHT22;5805;51.542;7.230;2023-05-10T09:35:51;19.80;99.90
11497;DHT22;5805;51.542;7.230;2023-05-10T09:38:17;20.00;99.90
11497;DHT22;5805;51.542;7.230;2023-05-10T09:40:51;20.10;99.90
11497;DHT22;5805;51.542;7.230;2023-05-10T09:43:17;20.10;99.90
11497;DHT22;5805;51.542;7.230;2023-05-10T09:45:48;20.30;99.90
11497;DHT22;5805;51.542;7.230;2023-05-10T09:48:14;20.40;99.90
11497;DHT22;5805;51.542;7.230;2023-05-10T09:50:39;20.60;99.90
11497;DHT22;5805;51.542;7.230;2023-05-10T09:53:05;20.80;99.90
11497;DHT22;5805;51.542;7.230;2023-05-10T09:55:39;21.10;99.90
11497;DHT22;5805;51.542;7.230;2023-05-10T09:58:06;21.50;99.90
11497;DHT22;5805;51.542;7.230;2023-05-10T10:00:35;21.70;99.90
11497;DHT22;5805;51.542;7.230;2023-05-10T10:03:03;21.70;99.90
11497;DHT22;5805;51.542;7.230;2023-05-10T10:05:30;21.90;99.90
11497;DHT22;5805;51.542;7.230;2023-05-10T10:07:57;22.20;99.90
11497;DHT22;5805;51.542;7.230;2023-05-10T10:10:23;22.60;99.90
11497;DHT22;5805;51.542;7.230;2023-05-10T10:12:49;22.90;99.90
11497;DHT22;5805;51.542;7.230;2023-05-10T10:15:15;23.00;99.90
11497;DHT22;5805;51.542;7.230;2023-05-10T10:17:41;23.00;99.90
11497;DHT22;5805;51.542;7.230;2023-05-10T10:20:10;22.90;99.90
11497;DHT22;5805;51.542;7.230;2023-05-10T10:22:37;22.60;99.90
11497;DHT22;5805;51.542;7.230;2023-05-10T10:25:04;22.30;99.90
11497;DHT22;5805;51.542;7.230;2023-05-10T10:27:37;21.80;99.90
11497;DHT22;5805;51.542;7.230;2023-05-10T10:30:14;21.30;99.90
11497;DHT22;5805;51.542;7.230;2023-05-10T10:33:01;21.00;99.90
11497;DHT22;5805;51.542;7.230;2023-05-10T10:35:31;20.90;99.90
11497;DHT22;5805;51.542;7.230;2023-05-10T10:37:57;20.90;99.90
11497;DHT22;5805;51.542;7.230;2023-05-10T10:40:24;21.00;99.90
11497;DHT22;5805;51.542;7.230;2023-05-10T10:42:50;21.20;99.90
11497;DHT22;5805;51.542;7.230;2023-05-10T10:45:15;21.20;99.90
11497;DHT22;5805;51.542;7.230;2023-05-10T10:47:41;21.30;99.90
11497;DHT22;5805;51.542;7.230;2023-05-10T10:50:07;21.60;99.90
11497;DHT22;5805;51.542;7.230;2023-05-10T10:52:35;22.00;99.90
11497;DHT22;5805;51.542;7.230;2023-05-10T10:55:03;22.30;99.90
11497;DHT22;5805;51.542;7.230;2023-05-10T10:57:32;22.50;99.90
11497;DHT22;5805;51.542;7.230;2023-05-10T11:00:24;22.60;99.90
11497;DHT22;5805;51.542;7.230;2023-05-10T11:02:51;22.70;97.20
11497;DHT22;5805;51.542;7.230;2023-05-10T11:08:11;22.40;97.70
11497;DHT22;5805;51.542;7.230;2023-05-10T11:10:37;22.30;99.60
11497;DHT22;5805;51.542;7.230;2023-05-10T11:13:04;22.20;99.90
11497;DHT22;5805;51.542;7.230;2023-05-10T11:15:32;22.30;99.90
11497;DHT22;5805;51.542;7.230;2023-05-10T11:17:58;22.40;99.90
11497;DHT22;5805;51.542;7.230;2023-05-10T11:20:27;22.30;99.90
11497;DHT22;5805;51.542;7.230;2023-05-10T11:22:54;22.20;99.90
11497;DHT22;5805;51.542;7.230;2023-05-10T11:25:26;22.10;99.90
11497;DHT22;5805;51.542;7.230;2023-05-10T11:27:52;21.90;99.90
11497;DHT22;5805;51.542;7.230;2023-05-10T11:30:18;21.80;99.90
11497;DHT22;5805;51.542;7.230;2023-05-10T11:32:44;21.70;99.90
11497;DHT22;5805;51.542;7.230;2023-05-10T11:35:11;21.60;99.90
11497;DHT22;5805;51.542;7.230;2023-05-10T11:37:38;21.70;99.90
11497;DHT22;5805;51.542;7.230;2023-05-10T11:40:06;21.80;99.90
11497;DHT22;5805;51.542;7.230;2023-05-10T11:42:33;22.10;99.90
11497;DHT22;5805;51.542;7.230;2023-05-10T11:45:00;22.30;99.40
11497;DHT22;5805;51.542;7.230;2023-05-10T11:47:26;22.50;98.50
11497;DHT22;5805;51.542;7.230;2023-05-10T11:49:52;22.50;98.30
11497;DHT22;5805;51.542;7.230;2023-05-10T11:52:18;22.40;98.00
11497;DHT22;5805;51.542;7.230;2023-05-10T11:54:51;22.40;98.50
11497;DHT22;5805;51.542;7.230;2023-05-10T11:57:18;22.60;97.40
11497;DHT22;5805;51.542;7.230;2023-05-10T11:59:45;22.60;98.20
11497;DHT22;5805;51.542;7.230;2023-05-10T12:02:11;22.70;97.80
11497;DHT22;5805;51.542;7.230;2023-05-10T12:04:37;22.70;97.60
11497;DHT22;5805;51.542;7.230;2023-05-10T12:07:03;22.50;97.60
11497;DHT22;5805;51.542;7.230;2023-05-10T12:09:30;22.30;99.10
11497;DHT22;5805;51.542;7.230;2023-05-10T12:11:56;22.30;99.10
11497;DHT22;5805;51.542;7.230;2023-05-10T12:14:22;22.00;99.80
11497;DHT22;5805;51.542;7.230;2023-05-10T12:16:49;21.90;99.90
11497;DHT22;5805;51.542;7.230;2023-05-10T12:19:18;21.90;99.90
11497;DHT22;5805;51.542;7.230;2023-05-10T12:21:44;22.00;99.90
11497;DHT22;5805;51.542;7.230;2023-05-10T12:24:10;22.00;99.90
11497;DHT22;5805;51.542;7.230;2023-05-10T12:26:36;22.10;99.90
11497;DHT22;5805;51.542;7.230;2023-05-10T12:29:17;22.20;99.90
11497;DHT22;5805;51.542;7.230;2023-05-10T12:31:57;22.50;99.90
11497;DHT22;5805;51.542;7.230;2023-05-10T12:34:25;22.60;96.90
11497;DHT22;5805;51.542;7.230;2023-05-10T12:36:51;22.70;97.90
11497;DHT22;5805;51.542;7.230;2023-05-10T12:39:17;22.80;98.50
11497;DHT22;5805;51.542;7.230;2023-05-10T12:41:42;22.70;97.60
11497;DHT22;5805;51.542;7.230;2023-05-10T12:44:08;22.70;97.70
11497;DHT22;5805;51.542;7.230;2023-05-10T12:46:34;22.70;97.50
11497;DHT22;5805;51.542;7.230;2023-05-10T12:49:01;22.70;97.50
11497;DHT22;5805;51.542;7.230;2023-05-10T12:51:26;22.50;98.00
11497;DHT22;5805;51.542;7.230;2023-05-10T12:53:52;22.30;99.10
11497;DHT22;5805;51.542;7.230;2023-05-10T12:56:18;22.10;98.60
11497;DHT22;5805;51.542;7.230;2023-05-10T12:58:43;22.00;99.90
11497;DHT22;5805;51.542;7.230;2023-05-10T13:01:09;22.10;99.90
11497;DHT22;5805;51.542;7.230;2023-05-10T13:03:35;22.00;99.90
11497;DHT22;5805;51.542;7.230;2023-05-10T13:06:02;22.10;99.50
11497;DHT22;5805;51.542;7.230;2023-05-10T13:08:28;22.30;99.30
11497;DHT22;5805;51.542;7.230;2023-05-10T13:10:54;22.40;99.10
11497;DHT22;5805;51.542;7.230;2023-05-10T13:13:19;22.50;98.10
11497;DHT22;5805;51.542;7.230;2023-05-10T13:15:45;22.50;97.90
11497;DHT22;5805;51.542;7.230;2023-05-10T13:18:11;22.40;98.40
11497;DHT22;5805;51.542;7.230;2023-05-10T13:20:37;22.30;98.20
11497;DHT22;5805;51.542;7.230;2023-05-10T13:23:04;22.20;98.90
11497;DHT22;5805;51.542;7.230;2023-05-10T13:25:29;22.20;99.10
11497;DHT22;5805;51.542;7.230;2023-05-10T13:27:55;22.20;98.70
11497;DHT22;5805;51.542;7.230;2023-05-10T13:30:21;22.30;98.40
11497;DHT22;5805;51.542;7.230;2023-05-10T13:32:46;22.10;98.40
11497;DHT22;5805;51.542;7.230;2023-05-10T13:35:12;22.10;97.70
11497;DHT22;5805;51.542;7.230;2023-05-10T13:37:38;22.00;98.40
11497;DHT22;5805;51.542;7.230;2023-05-10T13:40:07;22.00;98.50
11497;DHT22;5805;51.542;7.230;2023-05-10T13:42:32;22.00;98.00
11497;DHT22;5805;51.542;7.230;2023-05-10T13:44:58;22.10;97.70
11497;DHT22;5805;51.542;7.230;2023-05-10T13:47:24;22.10;97.60
11497;DHT22;5805;51.542;7.230;2023-05-10T13:49:50;22.10;98.30
11497;DHT22;5805;51.542;7.230;2023-05-10T13:52:15;22.10;98.40
11497;DHT22;5805;51.542;7.230;2023-05-10T13:54:41;22.20;98.20
11497;DHT22;5805;51.542;7.230;2023-05-10T13:57:08;22.30;98.40
11497;DHT22;5805;51.542;7.230;2023-05-10T13:59:34;22.50;97.40
11497;DHT22;5805;51.542;7.230;2023-05-10T14:02:00;22.60;96.50
11497;DHT22;5805;51.542;7.230;2023-05-10T14:04:25;22.60;95.30
11497;DHT22;5805;51.542;7.230;2023-05-10T14:06:51;22.60;94.60
11497;DHT22;5805;51.542;7.230;2023-05-10T14:09:17;22.50;94.20
11497;DHT22;5805;51.542;7.230;2023-05-10T14:11:42;22.50;94.60
11497;DHT22;5805;51.542;7.230;2023-05-10T14:14:09;22.50;94.60
11497;DHT22;5805;51.542;7.230;2023-05-10T14:16:35;22.30;93.80
11497;DHT22;5805;51.542;7.230;2023-05-10T14:19:01;22.20;95.10
11497;DHT22;5805;51.542;7.230;2023-05-10T14:21:26;22.10;93.90
11497;DHT22;5805;51.542;7.230;2023-05-10T14:23:52;22.00;94.30
11497;DHT22;5805;51.542;7.230;2023-05-10T14:26:18;21.90;94.60
11497;DHT22;5805;51.542;7.230;2023-05-10T14:28:43;21.90;94.90
11497;DHT22;5805;51.542;7.230;2023-05-10T14:31:10;21.80;94.00
11497;DHT22;5805;51.542;7.230;2023-05-10T14:33:36;21.80;94.40
11497;DHT22;5805;51.542;7.230;2023-05-10T14:36:02;21.70;94.30
11497;DHT22;5805;51.542;7.230;2023-05-10T14:38:28;21.80;94.60
11497;DHT22;5805;51.542;7.230;2023-05-10T14:40:53;21.80;94.80
11497;DHT22;5805;51.542;7.230;2023-05-10T14:43:19;21.90;93.90
11497;DHT22;5805;51.542;7.230;2023-05-10T14:45:45;22.10;93.80
11497;DHT22;5805;51.542;7.230;2023-05-10T14:48:12;22.00;94.40
11497;DHT22;5805;51.542;7.230;2023-05-10T14:50:37;22.00;93.80
11497;DHT22;5805;51.542;7.230;2023-05-10T14:53:03;21.90;94.10
11497;DHT22;5805;51.542;7.230;2023-05-10T14:55:29;21.90;95.10
11497;DHT22;5805;51.542;7.230;2023-05-10T14:57:55;22.00;95.40
11497;DHT22;5805;51.542;7.230;2023-05-10T15:00:21;22.10;94.80
11497;DHT22;5805;51.542;7.230;2023-05-10T15:02:46;22.20;94.10
11497;DHT22;5805;51.542;7.230;2023-05-10T15:05:14;22.20;93.70
11497;DHT22;5805;51.542;7.230;2023-05-10T15:07:39;22.10;93.80
11497;DHT22;5805;51.542;7.230;2023-05-10T15:10:06;22.20;93.30
11497;DHT22;5805;51.542;7.230;2023-05-10T15:12:32;22.20;93.10
11497;DHT22;5805;51.542;7.230;2023-05-10T15:14:58;22.30;92.50
11497;DHT22;5805;51.542;7.230;2023-05-10T15:17:23;22.40;92.50
11497;DHT22;5805;51.542;7.230;2023-05-10T15:19:49;22.50;91.60
11497;DHT22;5805;51.542;7.230;2023-05-10T15:22:16;22.40;90.20
11497;DHT22;5805;51.542;7.230;2023-05-10T15:24:42;22.40;90.80
11497;DHT22;5805;51.542;7.230;2023-05-10T15:27:07;22.40;91.50
11497;DHT22;5805;51.542;7.230;2023-05-10T15:29:33;22.30;91.30
11497;DHT22;5805;51.542;7.230;2023-05-10T15:31:59;22.30;92.60
11497;DHT22;5805;51.542;7.230;2023-05-10T15:34:26;22.50;91.00
11497;DHT22;5805;51.542;7.230;2023-05-10T15:36:52;22.50;90.50
11497;DHT22;5805;51.542;7.230;2023-05-10T15:39:19;22.50;87.70
11497;DHT22;5805;51.542;7.230;2023-05-10T15:41:44;22.50;89.90
11497;DHT22;5805;51.542;7.230;2023-05-10T15:44:10;22.40;89.30
11497;DHT22;5805;51.542;7.230;2023-05-10T15:46:36;22.40;90.10
11497;DHT22;5805;51.542;7.230;2023-05-10T15:49:02;22.20;91.00
11497;DHT22;5805;51.542;7.230;2023-05-10T15:51:27;22.20;91.40